createdAt,value
2018-11-29T00:00:37.214Z,31.50
2018-11-29T00:03:07.514Z,27.30
2018-11-29T00:05:36.578Z,28.93
2018-11-29T00:08:05.773Z,29.77
2018-11-29T00:10:34.991Z,29.20
2018-11-29T00:13:04.175Z,32.03
2018-11-29T00:15:33.216Z,29.33
2018-11-29T00:18:02.411Z,29.40
2018-11-29T00:20:31.714Z,33.73
2018-11-29T00:23:01.101Z,28.87
2018-11-29T00:25:30.118Z,28.27
2018-11-29T00:27:59.351Z,31.03
2018-11-29T00:30:28.731Z,31.27
2018-11-29T00:32:57.765Z,30.13
2018-11-29T00:35:26.835Z,32.30
2018-11-29T00:37:55.851Z,31.40
2018-11-29T00:40:25.150Z,33.73
2018-11-29T00:42:54.153Z,31.17
2018-11-29T00:45:24.056Z,31.73
2018-11-29T00:47:53.155Z,33.47
2018-11-29T00:50:22.595Z,35.07
2018-11-29T00:52:52.248Z,28.37
2018-11-29T00:55:23.212Z,34.57
2018-11-29T00:57:53.030Z,35.27
2018-11-29T01:00:24.462Z,32.27
2018-11-29T01:02:54.388Z,33.50
2018-11-29T01:05:23.662Z,34.67
2018-11-29T01:07:52.720Z,30.37
2018-11-29T01:10:22.296Z,33.63
2018-11-29T01:12:51.437Z,35.67
2018-11-29T01:15:21.584Z,38.57
2018-11-29T01:17:51.119Z,33.73
2018-11-29T01:20:20.973Z,34.97
2018-11-29T01:22:50.393Z,33.73
2018-11-29T01:25:19.594Z,36.07
2018-11-29T01:27:49.558Z,34.60
2018-11-29T01:30:21.605Z,36.73
2018-11-29T01:32:50.599Z,30.80
2018-11-29T01:35:20.959Z,38.90
2018-11-29T01:37:50.300Z,34.53
2018-11-29T01:40:23.498Z,33.13
2018-11-29T01:42:55.095Z,35.23
2018-11-29T01:45:24.685Z,34.90
2018-11-29T01:47:53.747Z,40.47
2018-11-29T01:50:23.165Z,33.83
2018-11-29T01:52:52.589Z,35.67
2018-11-29T01:55:21.644Z,34.90
2018-11-29T01:57:50.739Z,34.47
2018-11-29T02:00:19.853Z,32.30
2018-11-29T02:02:50.308Z,32.80
2018-11-29T02:05:19.745Z,33.30
2018-11-29T02:07:48.799Z,32.33
2018-11-29T02:10:23.310Z,31.73
2018-11-29T02:12:52.375Z,30.63
2018-11-29T02:15:21.420Z,30.60
2018-11-29T02:17:50.882Z,27.73
2018-11-29T02:20:20.311Z,29.90
2018-11-29T02:22:49.382Z,32.23
2018-11-29T02:25:18.456Z,34.60
2018-11-29T02:27:47.625Z,32.53
2018-11-29T02:30:19.903Z,32.83
2018-11-29T02:32:49.360Z,31.33
2018-11-29T02:35:18.765Z,31.77
2018-11-29T02:37:47.776Z,30.53
2018-11-29T02:40:17.991Z,33.27
2018-11-29T02:42:47.980Z,34.00
2018-11-29T02:45:21.997Z,30.73
2018-11-29T02:47:51.417Z,33.63
2018-11-29T02:50:20.388Z,36.80
2018-11-29T02:52:49.435Z,31.20
2018-11-29T02:55:18.679Z,34.13
2018-11-29T02:57:54.231Z,35.77
2018-11-29T03:00:23.247Z,34.70
2018-11-29T03:02:52.283Z,34.23
2018-11-29T03:05:21.315Z,40.60
2018-11-29T03:07:50.397Z,39.43
2018-11-29T03:10:24.791Z,39.97
2018-11-29T03:12:54.166Z,41.60
2018-11-29T03:15:23.649Z,39.67
2018-11-29T03:17:52.656Z,40.07
2018-11-29T03:20:21.710Z,39.50
2018-11-29T03:22:50.776Z,38.50
2018-11-29T03:25:20.195Z,40.57
2018-11-29T03:27:49.202Z,42.23
2018-11-29T03:30:20.269Z,43.70
2018-11-29T03:32:49.331Z,45.03
2018-11-29T03:35:18.398Z,45.13
2018-11-29T03:37:47.814Z,47.37
2018-11-29T03:40:17.504Z,46.60
2018-11-29T03:42:47.056Z,45.43
2018-11-29T03:45:16.918Z,45.27
2018-11-29T03:47:46.204Z,51.27
2018-11-29T03:50:17.214Z,49.53
2018-11-29T03:52:46.836Z,48.93
2018-11-29T03:55:15.881Z,50.90
2018-11-29T03:57:45.015Z,49.93
2018-11-29T04:00:17.267Z,52.00
2018-11-29T04:02:47.298Z,52.63
2018-11-29T04:05:16.365Z,52.07
2018-11-29T04:07:45.463Z,49.27
2018-11-29T04:10:16.082Z,52.87
2018-11-29T04:12:45.147Z,51.00
2018-11-29T04:15:15.209Z,49.77
2018-11-29T04:17:44.510Z,52.07
2018-11-29T04:20:14.839Z,47.97
2018-11-29T04:22:43.967Z,49.70
2018-11-29T04:25:14.000Z,54.33
2018-11-29T04:27:43.408Z,51.43
2018-11-29T04:30:14.362Z,49.60
2018-11-29T04:32:44.164Z,43.77
2018-11-29T04:35:13.721Z,49.70
2018-11-29T04:37:43.158Z,50.53
2018-11-29T04:40:15.734Z,51.77
2018-11-29T04:42:45.266Z,53.20
2018-11-29T04:45:15.715Z,49.20
2018-11-29T04:47:44.905Z,52.20
2018-11-29T04:50:14.398Z,49.90
2018-11-29T04:52:43.517Z,50.60
2018-11-29T04:55:12.592Z,52.97
2018-11-29T04:57:41.650Z,55.57
2018-11-29T05:00:14.806Z,55.03
2018-11-29T05:02:43.925Z,54.07
2018-11-29T05:05:13.591Z,56.17
2018-11-29T05:07:42.706Z,52.30
2018-11-29T05:10:16.351Z,54.33
2018-11-29T05:12:46.106Z,52.77
2018-11-29T05:15:15.100Z,57.30
2018-11-29T05:17:44.174Z,53.27
2018-11-29T05:20:13.558Z,57.33
2018-11-29T05:22:42.594Z,54.97
2018-11-29T05:25:11.645Z,53.70
2018-11-29T05:27:40.682Z,56.70
2018-11-29T05:30:12.327Z,54.87
2018-11-29T05:32:41.341Z,55.57
2018-11-29T05:35:11.770Z,54.53
2018-11-29T05:37:41.308Z,55.50
2018-11-29T05:40:11.654Z,56.17
2018-11-29T05:42:40.676Z,58.53
2018-11-29T05:45:11.095Z,60.87
2018-11-29T05:47:40.687Z,57.87
2018-11-29T05:50:11.135Z,59.60
2018-11-29T05:52:41.693Z,63.63
2018-11-29T05:55:11.128Z,56.63
2018-11-29T05:57:40.248Z,55.20
2018-11-29T06:00:12.783Z,56.37
2018-11-29T06:02:42.166Z,55.07
2018-11-29T06:05:12.578Z,58.03
2018-11-29T06:07:41.652Z,62.73
2018-11-29T06:10:10.675Z,54.80
2018-11-29T06:12:39.790Z,58.23
2018-11-29T06:15:10.464Z,58.23
2018-11-29T06:17:39.852Z,58.77
2018-11-29T06:20:16.139Z,62.20
2018-11-29T06:22:45.555Z,59.67
2018-11-29T06:25:17.965Z,58.27
2018-11-29T06:27:47.357Z,59.67
2018-11-29T06:30:19.844Z,53.93
2018-11-29T06:32:49.995Z,59.87
2018-11-29T06:35:19.576Z,60.97
2018-11-29T06:37:49.113Z,58.60
2018-11-29T06:40:18.561Z,59.83
2018-11-29T06:42:47.609Z,59.00
2018-11-29T06:45:19.061Z,58.13
2018-11-29T06:47:49.278Z,58.37
2018-11-29T06:50:18.672Z,61.07
2018-11-29T06:52:48.879Z,59.93
2018-11-29T06:55:21.904Z,58.90
2018-11-29T06:57:51.266Z,60.30
2018-11-29T07:00:27.761Z,59.27
2018-11-29T07:02:56.813Z,55.90
2018-11-29T07:05:25.992Z,61.70
2018-11-29T07:07:55.014Z,60.83
2018-11-29T07:10:29.403Z,59.60
2018-11-29T07:12:58.519Z,61.17
2018-11-29T07:15:28.256Z,57.63
2018-11-29T07:17:57.400Z,60.07
2018-11-29T07:20:26.496Z,57.63
2018-11-29T07:22:55.606Z,60.67
2018-11-29T07:25:25.003Z,63.00
2018-11-29T07:27:54.394Z,60.87
2018-11-29T07:30:23.427Z,62.33
2018-11-29T07:32:52.877Z,60.27
2018-11-29T07:35:22.109Z,57.67
2018-11-29T07:37:51.159Z,61.50
2018-11-29T07:40:20.364Z,62.13
2018-11-29T07:42:53.966Z,62.00
2018-11-29T07:45:23.040Z,59.23
2018-11-29T07:47:52.196Z,59.50
2018-11-29T07:50:22.551Z,58.67
2018-11-29T07:52:52.291Z,58.87
2018-11-29T07:55:22.072Z,55.57
2018-11-29T07:57:52.480Z,56.33
2018-11-29T08:00:22.001Z,62.03
2018-11-29T08:02:51.048Z,54.27
2018-11-29T08:05:20.136Z,60.70
2018-11-29T08:07:49.457Z,61.70
2018-11-29T08:10:19.723Z,60.23
2018-11-29T08:12:49.196Z,56.90
2018-11-29T08:15:20.492Z,59.03
2018-11-29T08:17:50.184Z,55.40
2018-11-29T08:20:20.287Z,52.77
2018-11-29T08:22:49.512Z,57.63
2018-11-29T08:25:18.542Z,55.37
2018-11-29T08:27:47.596Z,57.53
2018-11-29T08:30:17.320Z,60.57
2018-11-29T08:32:46.389Z,56.13
2018-11-29T08:35:16.374Z,51.57
2018-11-29T08:37:47.292Z,58.77
2018-11-29T08:40:20.102Z,53.77
2018-11-29T08:42:49.373Z,68.73
2018-11-29T08:45:18.439Z,58.67
2018-11-29T08:47:47.489Z,54.17
2018-11-29T08:50:16.590Z,54.43
2018-11-29T08:52:46.702Z,49.90
2018-11-29T08:55:17.066Z,50.67
2018-11-29T08:57:47.241Z,53.73
2018-11-29T09:00:18.603Z,53.20
2018-11-29T09:02:47.780Z,49.83
2018-11-29T09:05:17.269Z,55.23
2018-11-29T09:07:47.442Z,55.87
2018-11-29T09:10:21.133Z,53.47
2018-11-29T09:12:50.255Z,51.10
2018-11-29T09:15:19.722Z,50.43
2018-11-29T09:17:49.145Z,52.47
2018-11-29T09:20:19.930Z,47.47
2018-11-29T09:22:49.616Z,48.83
2018-11-29T09:25:20.500Z,53.00
2018-11-29T09:27:49.532Z,54.93
2018-11-29T09:30:20.614Z,54.53
2018-11-29T09:32:51.029Z,48.40
2018-11-29T09:35:20.362Z,53.87
2018-11-29T09:37:49.515Z,65.53
2018-11-29T09:40:19.272Z,50.13
2018-11-29T09:42:48.492Z,48.67
2018-11-29T09:45:18.744Z,46.07
2018-11-29T09:47:49.068Z,51.50
2018-11-29T09:50:18.429Z,49.80
2018-11-29T09:52:47.672Z,49.20
2018-11-29T09:55:17.894Z,48.07
2018-11-29T09:57:49.306Z,53.33
2018-11-29T10:00:28.015Z,54.27
2018-11-29T10:03:00.233Z,48.27
2018-11-29T10:05:29.656Z,51.47
2018-11-29T10:07:59.824Z,50.23
2018-11-29T10:10:29.593Z,45.90
2018-11-29T10:12:58.841Z,54.00
2018-11-29T10:15:28.796Z,47.97
2018-11-29T10:17:58.305Z,47.30
2018-11-29T10:20:27.554Z,53.43
2018-11-29T10:22:56.636Z,59.93
2018-11-29T10:25:25.700Z,55.40
2018-11-29T10:27:56.642Z,50.87
2018-11-29T10:30:29.215Z,46.40
2018-11-29T10:32:58.324Z,50.87
2018-11-29T10:35:27.391Z,50.20
2018-11-29T10:37:56.437Z,50.13
2018-11-29T10:40:25.491Z,45.37
2018-11-29T10:42:54.536Z,49.47
2018-11-29T10:45:23.658Z,46.80
2018-11-29T10:47:53.578Z,48.00
2018-11-29T10:50:22.603Z,51.97
2018-11-29T10:52:51.652Z,51.43
2018-11-29T10:55:21.151Z,56.37
2018-11-29T10:57:50.305Z,69.83
2018-11-29T11:00:27.490Z,49.53
2018-11-29T11:03:03.329Z,57.43
2018-11-29T11:05:33.098Z,52.63
2018-11-29T11:08:08.156Z,45.40
2018-11-29T11:10:31.403Z,48.83
2018-11-29T11:13:00.477Z,48.27
2018-11-29T11:15:29.728Z,51.23
2018-11-29T11:17:58.913Z,50.17
2018-11-29T11:20:28.431Z,51.23
2018-11-29T11:22:57.863Z,50.80
2018-11-29T11:25:27.363Z,48.27
2018-11-29T11:27:56.405Z,50.57
2018-11-29T11:30:25.501Z,58.47
2018-11-29T11:32:54.838Z,62.63
2018-11-29T11:35:24.325Z,52.60
2018-11-29T11:37:53.354Z,52.27
2018-11-29T11:40:22.447Z,58.03
2018-11-29T11:42:51.451Z,65.67
2018-11-29T11:45:21.433Z,88.73
2018-11-29T11:47:50.863Z,50.57
2018-11-29T11:50:22.960Z,55.07
2018-11-29T11:52:52.761Z,63.27
2018-11-29T11:55:22.174Z,55.93
2018-11-29T11:57:51.531Z,50.67
2018-11-29T12:00:26.035Z,46.67
2018-11-29T12:02:58.286Z,53.27
2018-11-29T12:05:27.574Z,56.13
2018-11-29T12:07:57.003Z,49.20
2018-11-29T12:10:26.254Z,52.93
2018-11-29T12:12:55.685Z,55.33
2018-11-29T12:15:24.732Z,51.23
2018-11-29T12:17:53.789Z,54.03
2018-11-29T12:20:22.854Z,45.27
2018-11-29T12:22:51.835Z,49.00
2018-11-29T12:25:22.819Z,48.40
2018-11-29T12:27:52.479Z,47.40
2018-11-29T12:30:27.754Z,51.70
2018-11-29T12:32:58.094Z,51.97
2018-11-29T12:35:27.219Z,48.63
2018-11-29T12:37:56.275Z,51.10
2018-11-29T12:40:25.495Z,50.60
2018-11-29T12:42:54.552Z,50.70
2018-11-29T12:45:24.111Z,51.27
2018-11-29T12:47:53.197Z,52.87
2018-11-29T12:50:24.517Z,52.23
2018-11-29T12:52:53.664Z,50.40
2018-11-29T12:55:24.936Z,51.43
2018-11-29T12:58:05.370Z,57.30
2018-11-29T13:00:24.709Z,47.97
2018-11-29T13:02:54.949Z,48.40
2018-11-29T13:05:24.164Z,50.80
2018-11-29T13:07:53.360Z,49.10
2018-11-29T13:10:23.816Z,49.80
2018-11-29T13:12:52.798Z,49.93
2018-11-29T13:15:28.556Z,49.60
2018-11-29T13:17:58.555Z,51.20
2018-11-29T13:20:32.386Z,54.07
2018-11-29T13:22:56.914Z,55.30
2018-11-29T13:25:27.121Z,54.27
2018-11-29T13:27:56.527Z,48.30
2018-11-29T13:30:25.839Z,48.53
2018-11-29T13:32:56.794Z,50.47
2018-11-29T13:35:30.448Z,51.13
2018-11-29T13:38:02.894Z,51.53
2018-11-29T13:40:32.150Z,52.17
2018-11-29T13:43:01.186Z,57.13
2018-11-29T13:45:30.190Z,52.77
2018-11-29T13:47:59.209Z,49.83
2018-11-29T13:50:28.231Z,51.07
2018-11-29T13:52:57.283Z,49.37
2018-11-29T13:55:26.351Z,51.47
2018-11-29T13:57:55.764Z,49.67
2018-11-29T14:00:25.021Z,49.43
2018-11-29T14:02:59.603Z,46.23
2018-11-29T14:05:28.714Z,50.37
2018-11-29T14:07:57.790Z,52.10
2018-11-29T14:10:26.856Z,46.60
2018-11-29T14:12:56.274Z,50.20
2018-11-29T14:15:26.827Z,54.13
2018-11-29T14:17:55.923Z,51.77
2018-11-29T14:20:25.145Z,49.77
2018-11-29T14:22:55.114Z,45.67
2018-11-29T14:25:24.179Z,50.00
2018-11-29T14:27:56.521Z,51.87
2018-11-29T14:30:26.553Z,48.30
2018-11-29T14:32:57.333Z,50.90
2018-11-29T14:35:26.794Z,52.70
2018-11-29T14:37:56.198Z,52.63
2018-11-29T14:40:26.363Z,49.93
2018-11-29T14:42:55.517Z,54.70
2018-11-29T14:45:25.887Z,48.10
2018-11-29T14:47:55.726Z,51.33
2018-11-29T14:50:27.610Z,72.17
2018-11-29T14:52:56.740Z,49.77
2018-11-29T14:55:25.924Z,51.90
2018-11-29T14:57:55.139Z,51.90
2018-11-29T15:00:24.203Z,50.27
2018-11-29T15:02:53.724Z,51.07
2018-11-29T15:05:29.000Z,51.80
2018-11-29T15:07:58.807Z,54.20
2018-11-29T15:10:27.888Z,52.00
2018-11-29T15:12:57.026Z,51.07
2018-11-29T15:15:26.038Z,51.67
2018-11-29T15:17:55.404Z,52.57
2018-11-29T15:20:34.312Z,50.13
2018-11-29T15:23:03.633Z,47.33
2018-11-29T15:25:33.216Z,53.17
2018-11-29T15:28:02.189Z,48.93
2018-11-29T15:30:31.514Z,49.80
2018-11-29T15:33:01.827Z,53.40
2018-11-29T15:35:30.989Z,45.97
2018-11-29T15:38:00.341Z,47.17
2018-11-29T15:40:29.405Z,48.40
2018-11-29T15:42:58.531Z,53.00
2018-11-29T15:45:28.052Z,45.53
2018-11-29T15:47:57.193Z,48.13
2018-11-29T15:50:26.355Z,47.80
2018-11-29T15:52:55.361Z,46.63
2018-11-29T15:55:24.486Z,49.23
2018-11-29T15:57:54.091Z,43.73
2018-11-29T16:00:27.625Z,46.23
2018-11-29T16:03:03.097Z,46.63
2018-11-29T16:05:32.320Z,41.07
2018-11-29T16:08:01.335Z,46.73
2018-11-29T16:10:30.383Z,44.40
2018-11-29T16:12:59.540Z,45.80
2018-11-29T16:15:29.135Z,48.20
2018-11-29T16:17:58.935Z,46.37
2018-11-29T16:20:32.184Z,46.73
2018-11-29T16:23:01.727Z,49.47
2018-11-29T16:25:30.804Z,45.93
2018-11-29T16:27:59.868Z,47.10
2018-11-29T16:30:31.867Z,46.03
2018-11-29T16:33:04.584Z,47.33
2018-11-29T16:35:33.733Z,44.33
2018-11-29T16:38:02.846Z,45.57
2018-11-29T16:40:31.993Z,41.73
2018-11-29T16:43:01.067Z,45.73
2018-11-29T16:45:30.234Z,45.13
2018-11-29T16:47:59.285Z,44.53
2018-11-29T16:50:28.499Z,45.23
2018-11-29T16:52:57.762Z,44.37
2018-11-29T16:55:26.843Z,43.70
2018-11-29T16:57:58.451Z,42.27
2018-11-29T17:00:27.618Z,45.73
2018-11-29T17:02:56.621Z,46.30
2018-11-29T17:05:25.651Z,46.80
2018-11-29T17:07:54.688Z,43.97
2018-11-29T17:10:24.544Z,44.37
2018-11-29T17:12:57.282Z,46.93
2018-11-29T17:15:26.373Z,46.87
2018-11-29T17:17:55.546Z,46.00
2018-11-29T17:20:24.891Z,47.00
2018-11-29T17:23:00.468Z,47.53
2018-11-29T17:25:29.935Z,45.93
2018-11-29T17:27:59.124Z,44.87
2018-11-29T17:30:28.691Z,42.63
2018-11-29T17:32:59.071Z,45.50
2018-11-29T17:35:28.234Z,46.27
2018-11-29T17:37:59.084Z,44.60
2018-11-29T17:40:29.087Z,48.30
2018-11-29T17:42:58.182Z,47.50
2018-11-29T17:45:29.304Z,50.70
2018-11-29T17:48:05.076Z,48.60
2018-11-29T17:50:37.291Z,48.57
2018-11-29T17:53:06.833Z,50.93
2018-11-29T17:55:36.703Z,53.10
2018-11-29T17:58:11.557Z,47.23
2018-11-29T18:00:40.816Z,48.47
2018-11-29T18:03:09.961Z,51.93
2018-11-29T18:05:39.000Z,46.17
2018-11-29T18:08:08.448Z,54.37
2018-11-29T18:10:39.477Z,49.80
2018-11-29T18:13:40.654Z,49.97
2018-11-29T18:16:09.693Z,51.33
2018-11-29T18:18:40.678Z,49.70
2018-11-29T18:21:13.039Z,54.30
2018-11-29T18:23:46.887Z,52.07
2018-11-29T18:26:11.211Z,54.37
2018-11-29T18:28:40.256Z,53.83
2018-11-29T18:31:09.291Z,50.10
2018-11-29T18:33:38.451Z,57.33
2018-11-29T18:36:07.478Z,47.47
2018-11-29T18:38:36.631Z,50.57
2018-11-29T18:41:05.845Z,48.83
2018-11-29T18:43:34.910Z,46.87
2018-11-29T18:46:04.300Z,49.00
2018-11-29T18:48:34.150Z,42.63
2018-11-29T18:51:03.198Z,44.87
2018-11-29T18:53:32.349Z,46.10
2018-11-29T18:56:01.736Z,45.30
2018-11-29T18:58:30.875Z,51.77
2018-11-29T19:00:59.955Z,46.33
2018-11-29T19:03:29.038Z,45.13
2018-11-29T19:05:58.109Z,46.60
2018-11-29T19:08:27.474Z,47.27
2018-11-29T19:10:56.554Z,44.90
2018-11-29T19:13:25.565Z,45.70
2018-11-29T19:15:54.622Z,44.70
2018-11-29T19:18:24.364Z,48.10
2018-11-29T19:20:53.384Z,43.60
2018-11-29T19:23:22.443Z,46.77
2018-11-29T19:25:51.464Z,46.83
2018-11-29T19:28:20.511Z,51.73
2018-11-29T19:30:49.537Z,51.17
2018-11-29T19:33:21.686Z,42.73
2018-11-29T19:35:51.891Z,52.47
2018-11-29T19:38:21.186Z,50.80
2018-11-29T19:40:50.209Z,44.90
2018-11-29T19:43:19.270Z,49.63
2018-11-29T19:45:48.399Z,46.70
2018-11-29T19:48:17.447Z,49.47
2018-11-29T19:50:46.566Z,48.90
2018-11-29T19:53:17.275Z,52.17
2018-11-29T19:55:46.989Z,47.90
2018-11-29T19:58:16.069Z,52.87
2018-11-29T20:00:45.186Z,50.77
2018-11-29T20:03:14.445Z,53.90
2018-11-29T20:05:43.541Z,52.53
2018-11-29T20:08:12.670Z,58.87
2018-11-29T20:10:41.843Z,46.43
2018-11-29T20:13:12.345Z,48.13
2018-11-29T20:15:43.152Z,47.80
2018-11-29T20:18:13.186Z,48.73
2018-11-29T20:20:42.193Z,41.43
2018-11-29T20:23:11.822Z,45.33
2018-11-29T20:25:42.418Z,45.93
2018-11-29T20:28:11.533Z,45.20
2018-11-29T20:30:40.613Z,52.63
2018-11-29T20:33:09.659Z,54.77
2018-11-29T20:35:39.056Z,62.43
2018-11-29T20:38:08.439Z,61.17
2018-11-29T20:40:39.530Z,55.33
2018-11-29T20:43:08.550Z,52.47
2018-11-29T20:45:40.397Z,46.10
2018-11-29T20:48:14.081Z,46.07
2018-11-29T20:50:43.144Z,45.83
2018-11-29T20:53:15.116Z,46.47
2018-11-29T20:55:44.179Z,48.07
2018-11-29T20:58:13.201Z,47.77
2018-11-29T21:00:42.208Z,50.60
2018-11-29T21:03:11.784Z,48.83
2018-11-29T21:05:42.007Z,53.17
2018-11-29T21:08:12.182Z,51.80
2018-11-29T21:10:41.630Z,49.40
2018-11-29T21:13:11.284Z,49.80
2018-11-29T21:15:41.980Z,50.40
2018-11-29T21:18:12.453Z,47.13
2018-11-29T21:20:42.888Z,48.03
2018-11-29T21:23:14.330Z,50.87
2018-11-29T21:25:43.796Z,49.77
2018-11-29T21:28:14.399Z,49.93
2018-11-29T21:30:44.298Z,47.17
2018-11-29T21:33:13.984Z,49.17
2018-11-29T21:35:43.211Z,48.27
2018-11-29T21:38:14.430Z,49.40
2018-11-29T21:40:53.698Z,45.37
2018-11-29T21:43:22.759Z,50.47
2018-11-29T21:45:53.465Z,48.60
2018-11-29T21:48:22.558Z,46.23
2018-11-29T21:50:51.574Z,47.77
2018-11-29T21:53:20.626Z,49.23
2018-11-29T21:55:50.218Z,47.77
2018-11-29T21:58:19.596Z,44.20
2018-11-29T22:00:48.961Z,43.97
2018-11-29T22:03:18.274Z,43.77
2018-11-29T22:05:48.878Z,46.50
2018-11-29T22:08:18.260Z,44.83
2018-11-29T22:10:47.654Z,47.67
2018-11-29T22:13:17.085Z,43.43
2018-11-29T22:15:46.482Z,40.77
2018-11-29T22:18:18.885Z,43.30
2018-11-29T22:20:49.649Z,46.70
2018-11-29T22:23:19.043Z,45.80
2018-11-29T22:25:48.425Z,45.30
2018-11-29T22:28:17.728Z,46.83
2018-11-29T22:30:47.061Z,45.27
2018-11-29T22:33:16.504Z,42.37
2018-11-29T22:35:45.958Z,41.43
2018-11-29T22:38:15.380Z,41.07
2018-11-29T22:40:44.493Z,42.97
2018-11-29T22:43:13.558Z,44.63
2018-11-29T22:45:42.702Z,40.37
2018-11-29T22:48:12.038Z,43.20
2018-11-29T22:50:41.160Z,38.23
2018-11-29T22:53:10.208Z,38.23
2018-11-29T22:55:40.076Z,39.07
2018-11-29T22:58:09.524Z,41.60
2018-11-29T23:00:54.135Z,43.20
2018-11-29T23:03:23.183Z,42.23
2018-11-29T23:05:52.241Z,43.67
2018-11-29T23:08:21.263Z,45.30
2018-11-29T23:10:52.193Z,41.97
2018-11-29T23:13:21.218Z,43.80
2018-11-29T23:15:50.293Z,41.27
2018-11-29T23:18:19.327Z,40.80
2018-11-29T23:20:48.366Z,43.67
2018-11-29T23:23:17.394Z,38.00
2018-11-29T23:25:46.515Z,41.63
2018-11-29T23:28:15.542Z,40.93
2018-11-29T23:30:44.607Z,37.83
2018-11-29T23:33:13.604Z,43.40
2018-11-29T23:35:42.629Z,35.23
2018-11-29T23:38:11.705Z,36.00
2018-11-29T23:40:40.830Z,36.73
2018-11-29T23:43:09.883Z,39.30
2018-11-29T23:45:39.095Z,39.23
2018-11-29T23:48:08.121Z,40.47
2018-11-29T23:50:37.177Z,41.63
2018-11-29T23:53:07.012Z,40.10
2018-11-29T23:55:36.001Z,39.17
2018-11-29T23:58:05.182Z,46.93
